Address 0x4decca7b742954899f2822acbf857178a012e5c7 1

 
 
Txn Hash Method
Block
From
To
Value [Txn Fee]
0x4a77842bf3693f8451a141572e1d9985a7bfea04fe955c83216a7747449b9f42Transfer360529892022-11-25 14:47:0721 hrs 53 mins ago0x4decca7b742954899f2822acbf857178a012e5c7OUT0xceb4b40dfae8255a1a995f930b05d9b1784a4fd70.119083807034604 MATIC0.001719444896 81.878328421
0xd170cefdccd440c3e1ad982bdd6d1a0d4fe4c30122b8b7a09c562bf5f121f3c3Transfer360526922022-11-25 14:36:5722 hrs 4 mins ago0x4decca7b742954899f2822acbf857178a012e5c7OUT Maker: Dai Stablecoin0 MATIC0.00435232374 75.92763233
0xdf3101cd5be9c7ba0c574cba39848ddb9363f8a07ec787ac73112c717a4107f0Transfer360526192022-11-25 14:34:2722 hrs 6 mins ago0x4decca7b742954899f2822acbf857178a012e5c7OUT0xceb4b40dfae8255a1a995f930b05d9b1784a4fd70.238588384790435 MATIC0.002323070119 110.622386636
0x1482f8cfda126b112251e8c3c23e431b93ab22ff707e40fd3687a6a27dedcd94Transfer360441492022-11-25 9:43:041 day 2 hrs ago0x4decca7b742954899f2822acbf857178a012e5c7OUT0x13414431a9aee8e73c2f5ce344829a9e892c4f0c0.480585313818441 MATIC0.000695535751 33.120750053
0x6b3fc8ba967d4fb039ad2f9ce18d026e90948d945fee93572dd537f05c83b969Transfer360441152022-11-25 9:41:561 day 2 hrs ago0x4decca7b742954899f2822acbf857178a012e5c7OUT Maker: Dai Stablecoin0 MATIC0.002033862431 35.488787847
0x92f1e9a5ae0629d2ac085a479f76eced519d646ba92de2491f883332e642eed2Transfer360341502022-11-25 3:51:481 day 8 hrs ago0x4decca7b742954899f2822acbf857178a012e5c7OUT0x2e641c73ab01b94869bef1d3a11811c25ad0cad50.602076356688584 MATIC0.000672210002 32.010000128
0x2480a1f4bcf6d2c80231c74b212bdc2b4cfb99f507bb1bd2a6320660590376fcTransfer360341312022-11-25 3:51:101 day 8 hrs ago0x4decca7b742954899f2822acbf857178a012e5c7OUT Maker: Dai Stablecoin0 MATIC0.001741766149 30.392010982
0xcaa325290e4334ef50589b417e4e1a43e47f062ce5b6089b403bbb8ddaf603bdTransfer360335572022-11-25 3:31:261 day 9 hrs ago0x4decca7b742954899f2822acbf857178a012e5c7OUT0x51f412f208890e1fafeb158adc96959ba6bce35c0.601771986486403 MATIC0.000630000008 30.000000405
0x60c1d32803896a0c4e17e8891f1afa0222552f5fd3164f8a5395be0fc23a702cTransfer360335362022-11-25 3:30:441 day 9 hrs ago0x4decca7b742954899f2822acbf857178a012e5c7OUT Maker: Dai Stablecoin0 MATIC0.001770144322 30.880714609
0xd1d4605b98523f4f4d994e4674a1cea05d37500ed442d42e561fccb9ad5b5176Transfer360126662022-11-24 15:22:061 day 21 hrs ago0x4decca7b742954899f2822acbf857178a012e5c7OUT Maker: Dai Stablecoin0 MATIC0.004900189039 85.485311731
0x8ef47e8814718f1b7ed90fea570105d00d01c907e2b2f193ba5779107aa97f68Transfer360122312022-11-24 15:07:121 day 21 hrs ago0x4decca7b742954899f2822acbf857178a012e5c7OUT0x062a1b072ccb0bba894d0111fad3197dab3e2e310.705615659026637 MATIC0.002557712317 121.79582462
0x5685e6a37593b99f9765fbae97d408e986ed039bcad8439d3263b06c59a364a9Transfer360088692022-11-24 13:09:191 day 23 hrs ago0xadff78b634bd4f6b602e6c52dba7454ba12957ed IN 0x4decca7b742954899f2822acbf857178a012e5c70.470532991863159 MATIC0.001377378187 65.589437512
0x15a56da26aadebd399cf468ce77c5cef8f34823207f8f0d4871640d69d8cdcccTransfer360083322022-11-24 12:50:531 day 23 hrs ago0x4decca7b742954899f2822acbf857178a012e5c7OUT Maker: Dai Stablecoin0 MATIC0.003031022257 75.379812412
0xe5a7f0e8fef6e3baf7d5191ee69cf0263a372a2f75a50f7ab59e182f56242ce5Transfer360083072022-11-24 12:49:591 day 23 hrs ago0x4decca7b742954899f2822acbf857178a012e5c7OUT0x65825a5426c0a40cb3d947ef05bb50eaa718be820.706536322339801 MATIC0.001453775687 69.227413686
0xff6286ede0fabdfc7c1ffb5d89963b0752dd80c53a6f68e8b1d3fef013958bf0Transfer360082812022-11-24 12:49:071 day 23 hrs ago0x4decca7b742954899f2822acbf857178a012e5c7OUT Maker: Dai Stablecoin0 MATIC0.004616711842 80.539964449
0xa64cf827ebac7d14f9ead508f136409cad2e36f1f3c921e849976aad461c8a5bTransfer360058122022-11-24 11:22:032 days 1 hr ago0x82155be1c2d0f4c073ede7b58e96dc64a96825c9 IN 0x4decca7b742954899f2822acbf857178a012e5c70.824937887444209 MATIC0.000959052909 45.669186163
0xf3c845e523094c5c2e95ab2298ba0b375ff0c6cd8819d6710e999255844979f5Transfer360051072022-11-24 10:57:492 days 1 hr ago0xced054ff9516d142b703cb828e02a186c90bc85d IN 0x4decca7b742954899f2822acbf857178a012e5c72 MATIC0.000921993741 43.904463873
0x2f4685beeb7715990271e85335f8077678697e6ae0322798a0dc552a49a96caaTransfer360046512022-11-24 10:42:092 days 1 hr ago0x4decca7b742954899f2822acbf857178a012e5c7OUT Maker: Dai Stablecoin0 MATIC0.002998683934 52.312967706
0x68bbe85b7213d4fbb33c3e666b1076c8d521a3ea0c2b16bc2bb254c0182a3e16Transfer360000512022-11-24 7:59:422 days 4 hrs ago0x4decca7b742954899f2822acbf857178a012e5c7OUT0xcc08ea56e17b791ba66bb34a6e94cc00ae77e79d0.458672398874468 MATIC0.000967329847 46.063326082
0x4261bfa91b44d8f49a2261144d95901e1e4580ccec967ebada7a4f6de9e91abfTransfer360000292022-11-24 7:58:582 days 4 hrs ago0x4decca7b742954899f2822acbf857178a012e5c7OUT Maker: Dai Stablecoin0 MATIC0.002264987837 39.529963307
0xfccc2782a6147e6f8e2066378f48c4ea2c51b4462dae157854b03631e6964da1Transfer359697572022-11-23 14:25:362 days 22 hrs ago0x4decca7b742954899f2822acbf857178a012e5c7OUT Maker: Dai Stablecoin0 MATIC0.003821792729 95.045827647
0x919f442a049d7f8756f707f473c3e57cb628265e58520a355f4a702709f49d0dTransfer359658802022-11-23 12:05:543 days 35 mins ago0x4decca7b742954899f2822acbf857178a012e5c7OUT Maker: Dai Stablecoin0 MATIC0.001442218642 35.867163449
0xed0e5eaf6aebe858700e5059598dc537c1eb4c07126a760d094214d088b84c58Buy359658082022-11-23 12:03:263 days 37 mins ago0x4decca7b742954899f2822acbf857178a012e5c7OUT 0xf3a3d1b89a70e291531ecb4a1299117f5de446120 MATIC0.038164921988 84.213211093
0x78dc7786589e32c239bec0e604f14cdf1fc20258ed19f2e952f411235ec2c76bApprove359657982022-11-23 12:03:063 days 38 mins ago0x4decca7b742954899f2822acbf857178a012e5c7OUT Maker: Dai Stablecoin0 MATIC0.004392904526 84.850972087
0xbec3fc4a9ec52d0e94584d1cca5446e9d2fa214daee7bed0d3df9e8db44c0818Transfer359629652022-11-23 10:23:193 days 2 hrs ago0x4decca7b742954899f2822acbf857178a012e5c7OUT0xfa4673ef0331cd19ccfee54518387c8859fd52a70.463491276767839 MATIC0.000661883848 31.518278491
[ Download CSV Export 
Parent Txn Hash Block From To Value
Loading

Contract Name:
0 MATIC

Compiler Version
0

Optimization Enabled:
0 MATIC

Other Settings:
-NA-
Block Transaction Gas Used Reward
Age Block Fee Address BC Fee Address Voting Power Jailed Incoming
Block Uncle Number Difficulty Gas Used Reward
Loading
Loading
Make sure to use the "Vote Down" button for any spammy posts, and the "Vote Up" for interesting conversations.